METAR Data
IDs: Format: Raw Decoded Include TAF

Data at: 0603 UTC 22 Oct 2021

SUMU 220600Z 02007KT CAVOK 14/12 Q1013 NOSIG